Airfield :
LOGIN :

Register | Disclaimer

   EN    FR    IT 

 










Legend :    VFR   Marginal VFR   IFR   Intensive IFR   Very Intensive IFR
Visi :
Ceiling :
>= 8 km
>= 3000ft
5 to 8 km
1000 to 3000 ft
1500m to 5 km
500 to 1000 ft
800 to 1500m
200 to 500 ft
< 800m
< 200 ft
Symbols :   Thunderstorms  Fog  Heavy snow  Heavy precipitations  Wind > 20 kt
SIGMETs :     Misc.  Thunderstorms  Icing  Turbulence  Mountain Waves  Volcanic Ashes






- Airport Elevation : 266 ft
- IATA code : NCL


EGNT - Newcastle

CURRENT METAR :
  • 131650Z 35008KT 9000 -RA BKN010 12/11 Q1012

EXPIRED METARs :
  • 131620Z 35008KT 9999 VCSH BKN009 12/11 Q1012
  • 131550Z 35010KT 9999 VCSH BKN009 12/11 Q1013
  • 131520Z 01010KT 330V040 9999 VCSH BKN009 13/11 Q1013
  • 131450Z 36011KT 320V030 9999 VCSH BKN010 13/11 Q1013
  • 131420Z 01010KT 340V040 9999 VCSH BKN007 13/11 Q1013
  • 131350Z 02010KT 350V050 8000 VCSH BKN007 12/11 Q1013
  • 131320Z 02010KT 340V050 8000 VCSH BKN008 13/11 Q1013
  • 131250Z 36009KT 2500 VCSH HZ BKN005 13/12 Q1013
  • 131220Z 01011KT 2500 VCSH HZ BKN005 13/12 Q1013

TAF AMD TAF EGNT
Valid from the 13 at 12:00 until the 14 at 12:00 UTC


131204Z 1312/1412 35008KT 9999 BKN012
TEMPO 1312/1408 6000 RA BKN006
PROB30
TEMPO 1312/1408 4000 BR BKN004
PROB30
TEMPO 1318/1408 +RA
BECMG 1405/1408 BKN008
TEMPO 1408/1412 5000 RADZ BKN004
ATIS : +44 191 214 3400



MET'MAP, your aeronautical weather chart ! - Copyright ORBIFLY December 2007 - Disclaimer

ORBIFLY MET'MAP TEAM :

Programming & Development : Alexandra Zaïnal
Original concept : Baudouin d'Aumeries
Technical & hardware support : Manuel Goepfert
Assistance : Marc-Olivier Méhu




SOURCES & CREDITS :

   NOAA